sensor_id;sensor_type;location;lat;lon;timestamp;P1;durP1;ratioP1;P2;durP2;ratioP2
7128;SDS011;3606;52.930;8.644;2022-09-28T00:01:32;10.10;;;7.27;;
7128;SDS011;3606;52.930;8.644;2022-09-28T00:03:58;10.77;;;6.73;;
7128;SDS011;3606;52.930;8.644;2022-09-28T00:06:26;8.37;;;6.47;;
7128;SDS011;3606;52.930;8.644;2022-09-28T00:08:54;9.87;;;7.60;;
7128;SDS011;3606;52.930;8.644;2022-09-28T00:11:20;7.90;;;6.73;;
7128;SDS011;3606;52.930;8.644;2022-09-28T00:13:51;9.73;;;6.80;;
7128;SDS011;3606;52.930;8.644;2022-09-28T00:16:21;9.00;;;6.83;;
7128;SDS011;3606;52.930;8.644;2022-09-28T00:18:50;10.43;;;7.37;;
7128;SDS011;3606;52.930;8.644;2022-09-28T00:21:20;7.87;;;6.77;;
7128;SDS011;3606;52.930;8.644;2022-09-28T00:23:49;10.10;;;6.90;;
7128;SDS011;3606;52.930;8.644;2022-09-28T00:26:34;8.83;;;6.67;;
7128;SDS011;3606;52.930;8.644;2022-09-28T00:29:01;11.87;;;7.20;;
7128;SDS011;3606;52.930;8.644;2022-09-28T00:31:27;9.50;;;6.83;;
7128;SDS011;3606;52.930;8.644;2022-09-28T00:33:56;10.23;;;7.40;;
7128;SDS011;3606;52.930;8.644;2022-09-28T00:36:24;8.17;;;6.80;;
7128;SDS011;3606;52.930;8.644;2022-09-28T00:38:52;6.97;;;6.27;;
7128;SDS011;3606;52.930;8.644;2022-09-28T00:41:20;9.20;;;6.67;;
7128;SDS011;3606;52.930;8.644;2022-09-28T00:43:46;13.20;;;6.90;;
7128;SDS011;3606;52.930;8.644;2022-09-28T00:46:19;8.93;;;6.97;;
7128;SDS011;3606;52.930;8.644;2022-09-28T00:48:59;7.00;;;6.03;;
7128;SDS011;3606;52.930;8.644;2022-09-28T00:51:29;10.63;;;7.40;;
7128;SDS011;3606;52.930;8.644;2022-09-28T00:53:55;8.20;;;6.63;;
7128;SDS011;3606;52.930;8.644;2022-09-28T00:56:23;10.73;;;6.83;;
7128;SDS011;3606;52.930;8.644;2022-09-28T00:58:52;8.73;;;6.47;;
7128;SDS011;3606;52.930;8.644;2022-09-28T01:01:18;10.27;;;7.00;;
7128;SDS011;3606;52.930;8.644;2022-09-28T01:03:45;10.43;;;6.70;;
7128;SDS011;3606;52.930;8.644;2022-09-28T01:06:22;10.47;;;7.13;;
7128;SDS011;3606;52.930;8.644;2022-09-28T01:08:51;8.20;;;6.87;;
7128;SDS011;3606;52.930;8.644;2022-09-28T01:11:22;7.67;;;6.33;;
7128;SDS011;3606;52.930;8.644;2022-09-28T01:13:49;10.03;;;7.77;;
7128;SDS011;3606;52.930;8.644;2022-09-28T01:28:05;13.50;;;8.20;;
7128;SDS011;3606;52.930;8.644;2022-09-28T01:30:41;11.20;;;7.90;;
7128;SDS011;3606;52.930;8.644;2022-09-28T01:33:12;12.60;;;8.23;;
7128;SDS011;3606;52.930;8.644;2022-09-28T01:35:52;12.53;;;8.37;;
7128;SDS011;3606;52.930;8.644;2022-09-28T01:38:36;11.00;;;8.53;;
7128;SDS011;3606;52.930;8.644;2022-09-28T01:41:15;10.10;;;8.43;;
7128;SDS011;3606;52.930;8.644;2022-09-28T01:43:44;11.80;;;9.23;;
7128;SDS011;3606;52.930;8.644;2022-09-28T01:48:53;13.47;;;9.97;;
7128;SDS011;3606;52.930;8.644;2022-09-28T01:51:47;13.00;;;8.37;;
7128;SDS011;3606;52.930;8.644;2022-09-28T01:54:17;16.93;;;9.90;;
7128;SDS011;3606;52.930;8.644;2022-09-28T01:56:55;14.70;;;9.77;;
7128;SDS011;3606;52.930;8.644;2022-09-28T01:59:43;11.37;;;8.93;;
7128;SDS011;3606;52.930;8.644;2022-09-28T02:02:16;12.23;;;9.13;;
7128;SDS011;3606;52.930;8.644;2022-09-28T02:05:11;11.93;;;9.53;;
7128;SDS011;3606;52.930;8.644;2022-09-28T02:07:39;14.27;;;9.83;;
7128;SDS011;3606;52.930;8.644;2022-09-28T02:13:29;14.07;;;10.13;;
7128;SDS011;3606;52.930;8.644;2022-09-28T02:18:39;17.53;;;11.27;;
7128;SDS011;3606;52.930;8.644;2022-09-28T02:21:10;16.37;;;10.80;;
7128;SDS011;3606;52.930;8.644;2022-09-28T02:24:06;15.63;;;10.67;;
7128;SDS011;3606;52.930;8.644;2022-09-28T02:26:40;17.20;;;10.47;;
7128;SDS011;3606;52.930;8.644;2022-09-28T02:29:08;15.97;;;11.30;;
7128;SDS011;3606;52.930;8.644;2022-09-28T02:31:34;18.30;;;11.23;;
7128;SDS011;3606;52.930;8.644;2022-09-28T02:34:00;17.77;;;11.50;;
7128;SDS011;3606;52.930;8.644;2022-09-28T02:36:26;18.37;;;12.03;;
7128;SDS011;3606;52.930;8.644;2022-09-28T02:38:53;17.87;;;12.80;;
7128;SDS011;3606;52.930;8.644;2022-09-28T02:54:51;20.00;;;14.23;;
7128;SDS011;3606;52.930;8.644;2022-09-28T02:57:38;19.73;;;13.53;;
7128;SDS011;3606;52.930;8.644;2022-09-28T03:00:07;17.93;;;12.10;;
7128;SDS011;3606;52.930;8.644;2022-09-28T03:12:52;13.77;;;9.63;;
7128;SDS011;3606;52.930;8.644;2022-09-28T03:15:28;16.07;;;9.67;;
7128;SDS011;3606;52.930;8.644;2022-09-28T03:17:56;13.37;;;8.50;;
7128;SDS011;3606;52.930;8.644;2022-09-28T03:20:22;13.73;;;8.63;;
7128;SDS011;3606;52.930;8.644;2022-09-28T03:22:48;11.80;;;8.70;;
7128;SDS011;3606;52.930;8.644;2022-09-28T03:25:14;10.07;;;8.17;;
7128;SDS011;3606;52.930;8.644;2022-09-28T03:27:40;11.03;;;8.70;;
7128;SDS011;3606;52.930;8.644;2022-09-28T03:30:06;10.40;;;8.10;;
7128;SDS011;3606;52.930;8.644;2022-09-28T03:32:32;13.30;;;8.00;;
7128;SDS011;3606;52.930;8.644;2022-09-28T03:34:58;13.57;;;7.60;;
7128;SDS011;3606;52.930;8.644;2022-09-28T03:37:25;12.10;;;7.90;;
7128;SDS011;3606;52.930;8.644;2022-09-28T03:39:51;12.63;;;8.13;;
7128;SDS011;3606;52.930;8.644;2022-09-28T03:42:16;11.13;;;6.90;;
7128;SDS011;3606;52.930;8.644;2022-09-28T03:44:42;12.47;;;6.90;;
7128;SDS011;3606;52.930;8.644;2022-09-28T03:47:08;10.03;;;7.10;;
7128;SDS011;3606;52.930;8.644;2022-09-28T03:49:34;10.00;;;7.40;;
7128;SDS011;3606;52.930;8.644;2022-09-28T03:52:00;11.07;;;7.50;;
7128;SDS011;3606;52.930;8.644;2022-09-28T03:54:25;10.63;;;6.73;;
7128;SDS011;3606;52.930;8.644;2022-09-28T03:56:51;8.87;;;6.57;;
7128;SDS011;3606;52.930;8.644;2022-09-28T03:59:17;11.63;;;7.27;;
7128;SDS011;3606;52.930;8.644;2022-09-28T04:01:43;10.07;;;6.60;;
7128;SDS011;3606;52.930;8.644;2022-09-28T04:04:10;9.03;;;6.17;;
7128;SDS011;3606;52.930;8.644;2022-09-28T04:06:36;8.13;;;6.30;;
7128;SDS011;3606;52.930;8.644;2022-09-28T04:09:02;8.50;;;5.57;;
7128;SDS011;3606;52.930;8.644;2022-09-28T04:11:28;10.47;;;5.47;;
7128;SDS011;3606;52.930;8.644;2022-09-28T04:13:53;8.50;;;6.30;;
7128;SDS011;3606;52.930;8.644;2022-09-28T04:16:19;7.40;;;5.40;;
7128;SDS011;3606;52.930;8.644;2022-09-28T04:18:45;9.87;;;5.83;;
7128;SDS011;3606;52.930;8.644;2022-09-28T04:21:13;8.80;;;6.40;;
7128;SDS011;3606;52.930;8.644;2022-09-28T04:23:40;8.83;;;6.00;;
7128;SDS011;3606;52.930;8.644;2022-09-28T04:26:07;9.27;;;5.57;;
7128;SDS011;3606;52.930;8.644;2022-09-28T04:28:51;7.00;;;5.03;;
7128;SDS011;3606;52.930;8.644;2022-09-28T04:31:36;9.07;;;5.07;;
7128;SDS011;3606;52.930;8.644;2022-09-28T04:34:16;6.47;;;5.30;;
7128;SDS011;3606;52.930;8.644;2022-09-28T04:36:44;6.57;;;4.37;;
7128;SDS011;3606;52.930;8.644;2022-09-28T04:39:11;8.90;;;4.33;;
7128;SDS011;3606;52.930;8.644;2022-09-28T04:41:37;7.83;;;4.57;;
7128;SDS011;3606;52.930;8.644;2022-09-28T04:44:02;5.20;;;3.87;;
7128;SDS011;3606;52.930;8.644;2022-09-28T04:46:28;4.70;;;3.30;;
7128;SDS011;3606;52.930;8.644;2022-09-28T04:48:54;8.50;;;3.80;;
7128;SDS011;3606;52.930;8.644;2022-09-28T04:51:19;4.53;;;3.33;;
7128;SDS011;3606;52.930;8.644;2022-09-28T04:53:45;5.73;;;3.00;;
7128;SDS011;3606;52.930;8.644;2022-09-28T04:56:11;3.03;;;2.70;;
7128;SDS011;3606;52.930;8.644;2022-09-28T04:58:38;4.60;;;2.90;;
7128;SDS011;3606;52.930;8.644;2022-09-28T05:01:07;4.63;;;2.77;;
7128;SDS011;3606;52.930;8.644;2022-09-28T05:03:37;2.97;;;2.67;;
7128;SDS011;3606;52.930;8.644;2022-09-28T05:06:03;3.90;;;2.73;;
7128;SDS011;3606;52.930;8.644;2022-09-28T05:08:29;3.33;;;2.70;;
7128;SDS011;3606;52.930;8.644;2022-09-28T05:10:59;3.43;;;2.60;;
7128;SDS011;3606;52.930;8.644;2022-09-28T05:13:27;3.63;;;2.50;;
7128;SDS011;3606;52.930;8.644;2022-09-28T05:15:53;2.90;;;2.60;;
7128;SDS011;3606;52.930;8.644;2022-09-28T05:18:20;3.30;;;2.53;;
7128;SDS011;3606;52.930;8.644;2022-09-28T05:20:46;4.40;;;3.20;;
7128;SDS011;3606;52.930;8.644;2022-09-28T05:23:12;5.20;;;3.10;;
7128;SDS011;3606;52.930;8.644;2022-09-28T05:25:39;3.00;;;2.67;;
7128;SDS011;3606;52.930;8.644;2022-09-28T05:28:06;3.07;;;2.67;;
7128;SDS011;3606;52.930;8.644;2022-09-28T05:30:32;3.20;;;2.90;;
7128;SDS011;3606;52.930;8.644;2022-09-28T05:32:59;3.27;;;2.87;;
7128;SDS011;3606;52.930;8.644;2022-09-28T05:35:25;3.43;;;3.03;;
7128;SDS011;3606;52.930;8.644;2022-09-28T05:37:51;5.00;;;2.93;;
7128;SDS011;3606;52.930;8.644;2022-09-28T05:40:17;2.67;;;2.40;;
7128;SDS011;3606;52.930;8.644;2022-09-28T05:42:42;3.27;;;2.53;;
7128;SDS011;3606;52.930;8.644;2022-09-28T05:45:08;4.23;;;2.67;;
7128;SDS011;3606;52.930;8.644;2022-09-28T05:47:38;2.97;;;2.70;;
7128;SDS011;3606;52.930;8.644;2022-09-28T05:50:06;3.73;;;2.63;;
7128;SDS011;3606;52.930;8.644;2022-09-28T05:52:32;2.97;;;2.67;;
7128;SDS011;3606;52.930;8.644;2022-09-28T05:54:58;6.30;;;2.63;;
7128;SDS011;3606;52.930;8.644;2022-09-28T05:57:24;3.57;;;2.90;;
7128;SDS011;3606;52.930;8.644;2022-09-28T05:59:50;3.87;;;3.33;;
7128;SDS011;3606;52.930;8.644;2022-09-28T06:02:15;7.07;;;3.03;;
7128;SDS011;3606;52.930;8.644;2022-09-28T06:04:41;3.63;;;3.00;;
7128;SDS011;3606;52.930;8.644;2022-09-28T06:07:06;4.83;;;3.27;;
7128;SDS011;3606;52.930;8.644;2022-09-28T06:09:32;6.07;;;3.90;;
7128;SDS011;3606;52.930;8.644;2022-09-28T06:11:58;7.10;;;3.10;;
7128;SDS011;3606;52.930;8.644;2022-09-28T06:14:23;7.20;;;3.47;;
7128;SDS011;3606;52.930;8.644;2022-09-28T06:16:49;3.53;;;3.10;;
7128;SDS011;3606;52.930;8.644;2022-09-28T06:19:16;6.90;;;3.17;;
7128;SDS011;3606;52.930;8.644;2022-09-28T06:21:41;4.80;;;3.57;;
7128;SDS011;3606;52.930;8.644;2022-09-28T06:24:08;5.07;;;3.70;;
7128;SDS011;3606;52.930;8.644;2022-09-28T06:26:34;6.67;;;3.47;;
7128;SDS011;3606;52.930;8.644;2022-09-28T06:28:59;3.63;;;3.13;;
7128;SDS011;3606;52.930;8.644;2022-09-28T06:31:26;4.20;;;3.10;;
7128;SDS011;3606;52.930;8.644;2022-09-28T06:33:54;3.93;;;3.13;;
7128;SDS011;3606;52.930;8.644;2022-09-28T06:36:19;3.80;;;3.43;;
7128;SDS011;3606;52.930;8.644;2022-09-28T06:38:46;4.73;;;3.20;;
7128;SDS011;3606;52.930;8.644;2022-09-28T06:41:12;5.23;;;3.20;;
7128;SDS011;3606;52.930;8.644;2022-09-28T06:43:37;3.63;;;2.70;;
7128;SDS011;3606;52.930;8.644;2022-09-28T06:46:03;3.63;;;3.13;;
7128;SDS011;3606;52.930;8.644;2022-09-28T06:48:30;4.43;;;3.57;;
7128;SDS011;3606;52.930;8.644;2022-09-28T06:50:57;4.80;;;3.47;;
7128;SDS011;3606;52.930;8.644;2022-09-28T06:53:24;6.30;;;3.53;;
7128;SDS011;3606;52.930;8.644;2022-09-28T06:55:51;5.37;;;3.40;;
7128;SDS011;3606;52.930;8.644;2022-09-28T06:58:17;4.37;;;3.80;;
7128;SDS011;3606;52.930;8.644;2022-09-28T07:00:45;5.77;;;4.00;;
7128;SDS011;3606;52.930;8.644;2022-09-28T07:03:13;5.07;;;3.67;;
7128;SDS011;3606;52.930;8.644;2022-09-28T07:05:44;6.90;;;4.47;;
7128;SDS011;3606;52.930;8.644;2022-09-28T07:08:11;6.30;;;4.10;;
7128;SDS011;3606;52.930;8.644;2022-09-28T07:10:41;4.93;;;4.00;;
7128;SDS011;3606;52.930;8.644;2022-09-28T07:13:08;6.00;;;4.13;;
7128;SDS011;3606;52.930;8.644;2022-09-28T07:15:34;5.33;;;4.20;;
7128;SDS011;3606;52.930;8.644;2022-09-28T07:18:02;6.43;;;4.37;;
7128;SDS011;3606;52.930;8.644;2022-09-28T07:20:29;5.80;;;4.27;;
7128;SDS011;3606;52.930;8.644;2022-09-28T07:22:58;6.40;;;4.10;;
7128;SDS011;3606;52.930;8.644;2022-09-28T07:25:25;6.63;;;4.50;;
7128;SDS011;3606;52.930;8.644;2022-09-28T07:27:53;5.90;;;3.97;;
7128;SDS011;3606;52.930;8.644;2022-09-28T07:30:21;5.10;;;3.93;;
7128;SDS011;3606;52.930;8.644;2022-09-28T07:32:47;6.57;;;5.00;;
7128;SDS011;3606;52.930;8.644;2022-09-28T07:35:13;8.20;;;4.30;;
7128;SDS011;3606;52.930;8.644;2022-09-28T07:37:39;7.13;;;4.30;;
7128;SDS011;3606;52.930;8.644;2022-09-28T07:40:06;6.67;;;4.60;;
7128;SDS011;3606;52.930;8.644;2022-09-28T07:42:51;5.90;;;4.40;;
7128;SDS011;3606;52.930;8.644;2022-09-28T07:45:18;9.67;;;4.77;;
7128;SDS011;3606;52.930;8.644;2022-09-28T07:47:44;5.83;;;4.80;;
7128;SDS011;3606;52.930;8.644;2022-09-28T07:50:11;6.60;;;4.67;;
7128;SDS011;3606;52.930;8.644;2022-09-28T07:52:37;5.43;;;4.67;;
7128;SDS011;3606;52.930;8.644;2022-09-28T07:55:03;5.40;;;4.27;;
7128;SDS011;3606;52.930;8.644;2022-09-28T07:57:29;6.50;;;5.27;;
7128;SDS011;3606;52.930;8.644;2022-09-28T07:59:57;6.30;;;5.20;;
7128;SDS011;3606;52.930;8.644;2022-09-28T08:02:24;9.17;;;5.30;;
7128;SDS011;3606;52.930;8.644;2022-09-28T08:04:50;5.57;;;4.10;;
7128;SDS011;3606;52.930;8.644;2022-09-28T08:07:16;4.93;;;4.10;;
7128;SDS011;3606;52.930;8.644;2022-09-28T08:09:43;5.27;;;3.87;;
7128;SDS011;3606;52.930;8.644;2022-09-28T08:12:10;3.33;;;2.97;;
7128;SDS011;3606;52.930;8.644;2022-09-28T08:14:37;4.20;;;3.60;;
7128;SDS011;3606;52.930;8.644;2022-09-28T08:17:03;4.03;;;3.33;;
7128;SDS011;3606;52.930;8.644;2022-09-28T08:19:29;4.73;;;2.87;;
7128;SDS011;3606;52.930;8.644;2022-09-28T08:22:15;3.90;;;3.03;;
7128;SDS011;3606;52.930;8.644;2022-09-28T08:24:42;3.37;;;2.63;;
7128;SDS011;3606;52.930;8.644;2022-09-28T08:27:09;3.07;;;2.57;;
7128;SDS011;3606;52.930;8.644;2022-09-28T08:29:35;3.13;;;2.53;;
7128;SDS011;3606;52.930;8.644;2022-09-28T08:32:01;4.97;;;2.57;;
7128;SDS011;3606;52.930;8.644;2022-09-28T08:34:27;3.47;;;2.60;;
7128;SDS011;3606;52.930;8.644;2022-09-28T08:36:55;2.73;;;2.13;;
7128;SDS011;3606;52.930;8.644;2022-09-28T08:39:21;3.00;;;2.40;;
7128;SDS011;3606;52.930;8.644;2022-09-28T08:41:47;3.30;;;2.50;;
7128;SDS011;3606;52.930;8.644;2022-09-28T08:44:23;2.40;;;2.20;;
7128;SDS011;3606;52.930;8.644;2022-09-28T08:46:55;2.67;;;2.43;;
7128;SDS011;3606;52.930;8.644;2022-09-28T08:49:33;2.53;;;2.27;;
7128;SDS011;3606;52.930;8.644;2022-09-28T08:52:10;2.30;;;2.10;;
7128;SDS011;3606;52.930;8.644;2022-09-28T08:54:52;2.70;;;2.10;;
7128;SDS011;3606;52.930;8.644;2022-09-28T08:57:47;3.23;;;2.10;;
7128;SDS011;3606;52.930;8.644;2022-09-28T09:03:09;2.20;;;2.00;;
7128;SDS011;3606;52.930;8.644;2022-09-28T09:05:44;3.33;;;2.33;;
7128;SDS011;3606;52.930;8.644;2022-09-28T09:10:58;3.47;;;2.60;;
7128;SDS011;3606;52.930;8.644;2022-09-28T09:21:46;2.50;;;2.30;;
7128;SDS011;3606;52.930;8.644;2022-09-28T09:24:40;2.77;;;2.50;;
7128;SDS011;3606;52.930;8.644;2022-09-28T09:38:17;3.60;;;3.00;;
7128;SDS011;3606;52.930;8.644;2022-09-28T09:46:31;3.67;;;3.10;;
7128;SDS011;3606;52.930;8.644;2022-09-28T09:49:21;2.47;;;2.27;;
7128;SDS011;3606;52.930;8.644;2022-09-28T09:54:19;4.10;;;3.10;;
7128;SDS011;3606;52.930;8.644;2022-09-28T09:59:53;3.10;;;2.80;;
7128;SDS011;3606;52.930;8.644;2022-09-28T10:02:23;4.17;;;3.20;;
7128;SDS011;3606;52.930;8.644;2022-09-28T10:04:53;4.90;;;3.43;;
7128;SDS011;3606;52.930;8.644;2022-09-28T10:08:09;3.57;;;3.10;;
7128;SDS011;3606;52.930;8.644;2022-09-28T10:10:29;3.57;;;3.20;;
7128;SDS011;3606;52.930;8.644;2022-09-28T10:13:03;4.10;;;3.47;;
7128;SDS011;3606;52.930;8.644;2022-09-28T10:15:30;6.10;;;4.43;;
7128;SDS011;3606;52.930;8.644;2022-09-28T10:17:59;5.27;;;4.40;;
7128;SDS011;3606;52.930;8.644;2022-09-28T10:20:28;5.87;;;4.17;;
7128;SDS011;3606;52.930;8.644;2022-09-28T10:23:02;5.10;;;3.80;;
7128;SDS011;3606;52.930;8.644;2022-09-28T10:25:33;6.10;;;4.50;;
7128;SDS011;3606;52.930;8.644;2022-09-28T10:28:02;5.20;;;4.67;;
7128;SDS011;3606;52.930;8.644;2022-09-28T10:30:30;7.93;;;4.67;;
7128;SDS011;3606;52.930;8.644;2022-09-28T10:36:12;6.37;;;5.50;;
7128;SDS011;3606;52.930;8.644;2022-09-28T10:38:38;8.20;;;6.07;;
7128;SDS011;3606;52.930;8.644;2022-09-28T10:41:11;7.27;;;5.40;;
7128;SDS011;3606;52.930;8.644;2022-09-28T10:46:32;6.83;;;4.93;;
7128;SDS011;3606;52.930;8.644;2022-09-28T10:49:20;8.37;;;5.67;;
7128;SDS011;3606;52.930;8.644;2022-09-28T10:54:17;11.77;;;7.37;;
7128;SDS011;3606;52.930;8.644;2022-09-28T10:56:44;10.30;;;7.27;;
7128;SDS011;3606;52.930;8.644;2022-09-28T11:01:55;11.27;;;8.70;;
7128;SDS011;3606;52.930;8.644;2022-09-28T11:04:23;10.57;;;8.63;;
7128;SDS011;3606;52.930;8.644;2022-09-28T11:06:52;10.30;;;8.47;;
7128;SDS011;3606;52.930;8.644;2022-09-28T11:09:32;8.87;;;7.83;;
7128;SDS011;3606;52.930;8.644;2022-09-28T11:12:04;9.13;;;7.83;;
7128;SDS011;3606;52.930;8.644;2022-09-28T11:14:38;11.40;;;8.47;;
7128;SDS011;3606;52.930;8.644;2022-09-28T11:19:54;10.20;;;9.20;;
7128;SDS011;3606;52.930;8.644;2022-09-28T11:22:29;11.30;;;9.57;;
7128;SDS011;3606;52.930;8.644;2022-09-28T11:30:21;10.07;;;8.43;;
7128;SDS011;3606;52.930;8.644;2022-09-28T11:32:53;12.07;;;10.43;;
7128;SDS011;3606;52.930;8.644;2022-09-28T11:38:39;10.67;;;7.80;;
7128;SDS011;3606;52.930;8.644;2022-09-28T11:50:27;5.20;;;4.70;;
7128;SDS011;3606;52.930;8.644;2022-09-28T11:57:46;6.88;;;6.18;;
7128;SDS011;3606;52.930;8.644;2022-09-28T12:00:21;6.80;;;6.10;;
7128;SDS011;3606;52.930;8.644;2022-09-28T12:02:49;5.40;;;4.90;;
7128;SDS011;3606;52.930;8.644;2022-09-28T12:13:22;5.07;;;4.63;;
7128;SDS011;3606;52.930;8.644;2022-09-28T12:23:59;7.53;;;6.13;;
7128;SDS011;3606;52.930;8.644;2022-09-28T12:29:25;6.20;;;5.30;;
7128;SDS011;3606;52.930;8.644;2022-09-28T12:34:24;7.63;;;5.73;;
7128;SDS011;3606;52.930;8.644;2022-09-28T12:36:58;8.03;;;6.10;;
7128;SDS011;3606;52.930;8.644;2022-09-28T12:39:45;5.97;;;3.97;;
7128;SDS011;3606;52.930;8.644;2022-09-28T12:42:43;5.50;;;3.60;;
7128;SDS011;3606;52.930;8.644;2022-09-28T12:56:03;4.63;;;4.00;;
7128;SDS011;3606;52.930;8.644;2022-09-28T13:01:39;5.97;;;4.20;;
7128;SDS011;3606;52.930;8.644;2022-09-28T13:10:30;6.07;;;4.67;;
7128;SDS011;3606;52.930;8.644;2022-09-28T13:16:01;5.80;;;4.67;;
7128;SDS011;3606;52.930;8.644;2022-09-28T13:18:49;6.47;;;4.77;;
7128;SDS011;3606;52.930;8.644;2022-09-28T13:21:33;5.90;;;4.60;;
7128;SDS011;3606;52.930;8.644;2022-09-28T13:24:23;6.20;;;4.80;;
7128;SDS011;3606;52.930;8.644;2022-09-28T13:26:55;5.13;;;4.10;;
7128;SDS011;3606;52.930;8.644;2022-09-28T13:29:23;5.03;;;4.47;;
7128;SDS011;3606;52.930;8.644;2022-09-28T13:31:52;5.77;;;4.67;;
7128;SDS011;3606;52.930;8.644;2022-09-28T13:34:21;7.57;;;4.60;;
7128;SDS011;3606;52.930;8.644;2022-09-28T13:42:10;5.67;;;4.87;;
7128;SDS011;3606;52.930;8.644;2022-09-28T13:44:58;4.90;;;4.27;;
7128;SDS011;3606;52.930;8.644;2022-09-28T13:50:32;6.63;;;4.47;;
7128;SDS011;3606;52.930;8.644;2022-09-28T13:53:06;4.47;;;4.03;;
7128;SDS011;3606;52.930;8.644;2022-09-28T13:58:50;5.73;;;4.33;;
7128;SDS011;3606;52.930;8.644;2022-09-28T14:01:22;6.43;;;4.37;;
7128;SDS011;3606;52.930;8.644;2022-09-28T14:04:19;5.47;;;4.23;;
7128;SDS011;3606;52.930;8.644;2022-09-28T14:06:53;7.93;;;5.50;;
7128;SDS011;3606;52.930;8.644;2022-09-28T14:09:45;6.57;;;4.93;;
7128;SDS011;3606;52.930;8.644;2022-09-28T14:14:59;6.57;;;5.13;;
7128;SDS011;3606;52.930;8.644;2022-09-28T14:19:52;6.23;;;4.83;;
7128;SDS011;3606;52.930;8.644;2022-09-28T14:30:49;4.73;;;4.13;;
7128;SDS011;3606;52.930;8.644;2022-09-28T14:35:48;7.50;;;4.00;;
7128;SDS011;3606;52.930;8.644;2022-09-28T14:38:20;5.70;;;5.13;;
7128;SDS011;3606;52.930;8.644;2022-09-28T14:41:26;6.70;;;4.70;;
7128;SDS011;3606;52.930;8.644;2022-09-28T14:43:59;5.07;;;3.80;;
7128;SDS011;3606;52.930;8.644;2022-09-28T14:46:31;5.17;;;3.90;;
7128;SDS011;3606;52.930;8.644;2022-09-28T14:49:04;7.10;;;4.33;;
7128;SDS011;3606;52.930;8.644;2022-09-28T14:54:22;5.67;;;4.40;;
7128;SDS011;3606;52.930;8.644;2022-09-28T14:59:17;4.20;;;3.80;;
7128;SDS011;3606;52.930;8.644;2022-09-28T15:01:49;3.87;;;3.37;;
7128;SDS011;3606;52.930;8.644;2022-09-28T15:04:18;4.27;;;3.60;;
7128;SDS011;3606;52.930;8.644;2022-09-28T15:06:48;3.87;;;3.20;;
7128;SDS011;3606;52.930;8.644;2022-09-28T15:09:28;2.53;;;2.30;;
7128;SDS011;3606;52.930;8.644;2022-09-28T15:12:02;8.17;;;6.60;;
7128;SDS011;3606;52.930;8.644;2022-09-28T15:14:37;3.77;;;3.00;;
7128;SDS011;3606;52.930;8.644;2022-09-28T15:17:09;2.83;;;2.40;;
7128;SDS011;3606;52.930;8.644;2022-09-28T15:22:20;2.57;;;2.10;;
7128;SDS011;3606;52.930;8.644;2022-09-28T15:24:56;3.40;;;2.30;;
7128;SDS011;3606;52.930;8.644;2022-09-28T15:27:23;2.83;;;2.13;;
7128;SDS011;3606;52.930;8.644;2022-09-28T15:29:57;4.13;;;1.77;;
7128;SDS011;3606;52.930;8.644;2022-09-28T15:32:27;2.10;;;1.77;;
7128;SDS011;3606;52.930;8.644;2022-09-28T15:34:54;2.60;;;1.90;;
7128;SDS011;3606;52.930;8.644;2022-09-28T15:37:24;5.40;;;2.90;;
7128;SDS011;3606;52.930;8.644;2022-09-28T15:39:53;2.20;;;2.00;;
7128;SDS011;3606;52.930;8.644;2022-09-28T15:42:20;3.90;;;2.10;;
7128;SDS011;3606;52.930;8.644;2022-09-28T15:45:47;3.27;;;2.03;;
7128;SDS011;3606;52.930;8.644;2022-09-28T15:47:52;2.80;;;2.07;;
7128;SDS011;3606;52.930;8.644;2022-09-28T15:50:29;9.80;;;6.13;;
7128;SDS011;3606;52.930;8.644;2022-09-28T15:52:58;2.63;;;2.00;;
7128;SDS011;3606;52.930;8.644;2022-09-28T15:55:27;5.27;;;4.10;;
7128;SDS011;3606;52.930;8.644;2022-09-28T15:58:17;2.93;;;2.63;;
7128;SDS011;3606;52.930;8.644;2022-09-28T16:00:48;2.97;;;2.40;;
7128;SDS011;3606;52.930;8.644;2022-09-28T16:05:42;3.83;;;2.73;;
7128;SDS011;3606;52.930;8.644;2022-09-28T16:08:25;4.40;;;2.53;;
7128;SDS011;3606;52.930;8.644;2022-09-28T16:16:34;4.10;;;3.60;;
7128;SDS011;3606;52.930;8.644;2022-09-28T16:19:03;3.80;;;2.90;;
7128;SDS011;3606;52.930;8.644;2022-09-28T16:21:43;3.90;;;2.27;;
7128;SDS011;3606;52.930;8.644;2022-09-28T16:24:17;2.90;;;2.07;;
7128;SDS011;3606;52.930;8.644;2022-09-28T16:26:45;4.03;;;2.07;;
7128;SDS011;3606;52.930;8.644;2022-09-28T16:30:00;3.10;;;2.60;;
7128;SDS011;3606;52.930;8.644;2022-09-28T16:35:13;2.97;;;2.70;;
7128;SDS011;3606;52.930;8.644;2022-09-28T16:37:40;3.73;;;2.80;;
7128;SDS011;3606;52.930;8.644;2022-09-28T16:40:06;3.77;;;2.70;;
7128;SDS011;3606;52.930;8.644;2022-09-28T16:42:32;3.50;;;3.03;;
7128;SDS011;3606;52.930;8.644;2022-09-28T16:44:59;5.80;;;3.87;;
7128;SDS011;3606;52.930;8.644;2022-09-28T16:47:27;7.13;;;4.30;;
7128;SDS011;3606;52.930;8.644;2022-09-28T16:49:58;7.47;;;5.13;;
7128;SDS011;3606;52.930;8.644;2022-09-28T16:52:25;8.70;;;5.37;;
7128;SDS011;3606;52.930;8.644;2022-09-28T16:55:09;10.87;;;8.03;;
7128;SDS011;3606;52.930;8.644;2022-09-28T16:57:41;10.23;;;7.73;;
7128;SDS011;3606;52.930;8.644;2022-09-28T17:00:21;12.63;;;7.47;;
7128;SDS011;3606;52.930;8.644;2022-09-28T17:02:49;9.43;;;6.83;;
7128;SDS011;3606;52.930;8.644;2022-09-28T17:05:15;12.13;;;6.67;;
7128;SDS011;3606;52.930;8.644;2022-09-28T17:07:42;12.10;;;8.27;;
7128;SDS011;3606;52.930;8.644;2022-09-28T17:10:21;12.73;;;8.67;;
7128;SDS011;3606;52.930;8.644;2022-09-28T17:12:59;11.33;;;7.73;;
7128;SDS011;3606;52.930;8.644;2022-09-28T17:15:27;12.20;;;6.27;;
7128;SDS011;3606;52.930;8.644;2022-09-28T17:17:53;6.80;;;5.70;;
7128;SDS011;3606;52.930;8.644;2022-09-28T17:20:21;4.97;;;3.50;;
7128;SDS011;3606;52.930;8.644;2022-09-28T17:22:51;7.77;;;3.83;;
7128;SDS011;3606;52.930;8.644;2022-09-28T17:25:18;4.90;;;3.33;;
7128;SDS011;3606;52.930;8.644;2022-09-28T17:27:46;4.10;;;3.57;;
7128;SDS011;3606;52.930;8.644;2022-09-28T17:30:12;4.77;;;3.57;;
7128;SDS011;3606;52.930;8.644;2022-09-28T17:32:40;8.60;;;5.00;;
7128;SDS011;3606;52.930;8.644;2022-09-28T17:35:11;5.80;;;5.00;;
7128;SDS011;3606;52.930;8.644;2022-09-28T17:37:37;6.23;;;5.43;;
7128;SDS011;3606;52.930;8.644;2022-09-28T17:40:12;10.57;;;5.73;;
7128;SDS011;3606;52.930;8.644;2022-09-28T17:42:39;11.30;;;5.53;;
7128;SDS011;3606;52.930;8.644;2022-09-28T17:45:05;6.67;;;5.33;;
7128;SDS011;3606;52.930;8.644;2022-09-28T17:47:30;8.27;;;5.83;;
7128;SDS011;3606;52.930;8.644;2022-09-28T17:49:56;9.00;;;6.40;;
7128;SDS011;3606;52.930;8.644;2022-09-28T17:52:22;9.30;;;7.10;;
7128;SDS011;3606;52.930;8.644;2022-09-28T17:54:48;10.57;;;7.40;;
7128;SDS011;3606;52.930;8.644;2022-09-28T17:57:13;10.60;;;7.30;;
7128;SDS011;3606;52.930;8.644;2022-09-28T17:59:39;8.80;;;7.47;;
7128;SDS011;3606;52.930;8.644;2022-09-28T18:02:05;10.30;;;7.53;;
7128;SDS011;3606;52.930;8.644;2022-09-28T18:04:34;7.73;;;6.33;;
7128;SDS011;3606;52.930;8.644;2022-09-28T18:07:00;7.47;;;6.50;;
7128;SDS011;3606;52.930;8.644;2022-09-28T18:09:25;6.83;;;6.10;;
7128;SDS011;3606;52.930;8.644;2022-09-28T18:11:57;8.47;;;5.87;;
7128;SDS011;3606;52.930;8.644;2022-09-28T18:14:24;7.53;;;6.10;;
7128;SDS011;3606;52.930;8.644;2022-09-28T18:16:50;9.77;;;6.73;;
7128;SDS011;3606;52.930;8.644;2022-09-28T18:19:16;8.37;;;6.50;;
7128;SDS011;3606;52.930;8.644;2022-09-28T18:21:41;8.67;;;6.67;;
7128;SDS011;3606;52.930;8.644;2022-09-28T18:24:07;9.00;;;7.07;;
7128;SDS011;3606;52.930;8.644;2022-09-28T18:26:32;8.97;;;7.20;;
7128;SDS011;3606;52.930;8.644;2022-09-28T18:28:58;8.57;;;7.10;;
7128;SDS011;3606;52.930;8.644;2022-09-28T18:31:23;10.30;;;7.20;;
7128;SDS011;3606;52.930;8.644;2022-09-28T18:33:49;11.40;;;8.40;;
7128;SDS011;3606;52.930;8.644;2022-09-28T18:36:15;10.83;;;8.80;;
7128;SDS011;3606;52.930;8.644;2022-09-28T18:38:40;10.13;;;8.37;;
7128;SDS011;3606;52.930;8.644;2022-09-28T18:41:07;14.53;;;9.43;;
7128;SDS011;3606;52.930;8.644;2022-09-28T18:43:40;12.03;;;8.07;;
7128;SDS011;3606;52.930;8.644;2022-09-28T18:46:07;8.50;;;7.60;;
7128;SDS011;3606;52.930;8.644;2022-09-28T18:48:34;7.07;;;6.23;;
7128;SDS011;3606;52.930;8.644;2022-09-28T18:51:00;9.00;;;6.30;;
7128;SDS011;3606;52.930;8.644;2022-09-28T18:53:26;11.60;;;7.27;;
7128;SDS011;3606;52.930;8.644;2022-09-28T18:55:52;10.60;;;6.53;;
7128;SDS011;3606;52.930;8.644;2022-09-28T18:58:19;8.30;;;6.27;;
7128;SDS011;3606;52.930;8.644;2022-09-28T19:00:44;11.17;;;6.87;;